KEOK

Keokuk Municipal Airport

Keokuk, Iowa, USA
METAR KEOK 271155Z AUTO 22004KT 10SM CLR 23/22 A2984 RMK AO2
Observed Flight Rules
May-27 @ 11:55 UTC (11 minutes ago) Visual Flight Rules
Wind Visibility Clouds
220° at 4 knots 10 miles
  • Clear skies
Temperatures Readings
Current 23°C / 73°F
Dewpoint 22°C / 72°F
Humidity 94%
Altimeter 29.84" Hg
Pressure 1010 hPa
Elevation 205
METAR KEOK 271155Z AUTO 22004KT 10SM CLR 23/22 A2984 RMK AO2
Observed Flight Rules
May-27 @ 11:55 UTC
(11 minutes ago)
VFR
Wind Visibility
220° at 4 knots 10 miles
Clouds
  • Clear skies
Temperature Dewpoint
23°C / 73°F 22°C / 72°F
Humidity Altimeter Pressure
94% 29.84" Hg 1010 hPa